Terminal Aerodrome Forecast
Issued by NWS

Home | Current Version | Previous Version | Text Only | Print | Product List | Glossary On
Versions: 1 2 3 4 5 6 7 8 9 10 11 12 13 14
772
FTUS42 KMLB 130535
TAFTIX
TAF
KTIX 130535Z 1306/1406 24006KT P6SM FEW030
     FM131200 33010KT P6SM FEW015 SCT030
     FM131500 36012G18KT P6SM SKC
     FM132300 02007KT P6SM SKC
      AMD NOT SKED TIL 131200=

USA.gov is the U.S. government's official web portal to all federal, state and local government web resources and services.